sensor_id;sensor_type;location;lat;lon;timestamp;temperature;humidity
19164;DHT22;9714;51.208;4.242;2023-04-08T00:33:30;10.40;99.90
19164;DHT22;9714;51.208;4.242;2023-04-08T00:35:57;10.50;99.90
19164;DHT22;9714;51.208;4.242;2023-04-08T00:38:25;10.70;99.90
19164;DHT22;9714;51.208;4.242;2023-04-08T00:40:52;10.70;99.90
19164;DHT22;9714;51.208;4.242;2023-04-08T00:43:21;10.50;99.90
19164;DHT22;9714;51.208;4.242;2023-04-08T02:29:16;10.10;99.90
19164;DHT22;9714;51.208;4.242;2023-04-08T02:33:04;10.10;99.90
19164;DHT22;9714;51.208;4.242;2023-04-08T02:43:27;10.40;99.90
19164;DHT22;9714;51.208;4.242;2023-04-08T02:50:29;10.60;99.90
19164;DHT22;9714;51.208;4.242;2023-04-08T04:14:43;10.50;99.90
19164;DHT22;9714;51.208;4.242;2023-04-08T04:17:24;10.40;99.90
19164;DHT22;9714;51.208;4.242;2023-04-08T04:19:54;10.30;99.90
19164;DHT22;9714;51.208;4.242;2023-04-08T05:02:53;10.30;99.90
19164;DHT22;9714;51.208;4.242;2023-04-08T05:06:30;10.30;99.90
19164;DHT22;9714;51.208;4.242;2023-04-08T05:09:16;10.20;99.90
19164;DHT22;9714;51.208;4.242;2023-04-08T05:12:41;10.10;99.90
19164;DHT22;9714;51.208;4.242;2023-04-08T05:19:38;10.20;99.90
19164;DHT22;9714;51.208;4.242;2023-04-08T05:33:13;10.40;99.90
19164;DHT22;9714;51.208;4.242;2023-04-08T05:43:07;10.60;99.90
19164;DHT22;9714;51.208;4.242;2023-04-08T05:46:14;10.50;99.90
19164;DHT22;9714;51.208;4.242;2023-04-08T05:49:44;10.30;99.90
19164;DHT22;9714;51.208;4.242;2023-04-08T05:53:25;10.10;99.90
19164;DHT22;9714;51.208;4.242;2023-04-08T06:16:24;10.70;99.90
19164;DHT22;9714;51.208;4.242;2023-04-08T06:19:22;10.90;99.90
19164;DHT22;9714;51.208;4.242;2023-04-08T06:32:49;11.40;99.90
19164;DHT22;9714;51.208;4.242;2023-04-08T06:36:16;11.50;99.90
19164;DHT22;9714;51.208;4.242;2023-04-08T06:39:16;11.60;99.90
19164;DHT22;9714;51.208;4.242;2023-04-08T06:45:49;11.50;99.90
19164;DHT22;9714;51.208;4.242;2023-04-08T06:55:25;11.10;99.90
19164;DHT22;9714;51.208;4.242;2023-04-08T06:58:15;11.10;99.90
19164;DHT22;9714;51.208;4.242;2023-04-08T07:04:13;11.10;99.90
19164;DHT22;9714;51.208;4.242;2023-04-08T07:08:28;11.20;99.90
19164;DHT22;9714;51.208;4.242;2023-04-08T07:11:13;11.30;99.90
19164;DHT22;9714;51.208;4.242;2023-04-08T07:14:07;11.10;99.90
19164;DHT22;9714;51.208;4.242;2023-04-08T07:27:40;11.30;99.90
19164;DHT22;9714;51.208;4.242;2023-04-08T07:30:49;11.40;99.90
19164;DHT22;9714;51.208;4.242;2023-04-08T07:33:21;11.20;99.90
19164;DHT22;9714;51.208;4.242;2023-04-08T07:35:58;11.20;99.90
19164;DHT22;9714;51.208;4.242;2023-04-08T07:38:36;11.00;99.90
19164;DHT22;9714;51.208;4.242;2023-04-08T07:41:12;11.10;99.90
19164;DHT22;9714;51.208;4.242;2023-04-08T07:43:56;11.10;99.90
19164;DHT22;9714;51.208;4.242;2023-04-08T07:46:27;11.30;99.90
19164;DHT22;9714;51.208;4.242;2023-04-08T07:49:02;11.20;99.90
19164;DHT22;9714;51.208;4.242;2023-04-08T07:51:36;11.20;99.90
19164;DHT22;9714;51.208;4.242;2023-04-08T07:54:06;11.20;99.90
19164;DHT22;9714;51.208;4.242;2023-04-08T08:03:19;11.00;99.90
19164;DHT22;9714;51.208;4.242;2023-04-08T08:05:50;11.00;99.90
19164;DHT22;9714;51.208;4.242;2023-04-08T08:08:57;11.30;99.90
19164;DHT22;9714;51.208;4.242;2023-04-08T08:11:51;11.30;99.90
19164;DHT22;9714;51.208;4.242;2023-04-08T08:15:31;11.30;99.90
19164;DHT22;9714;51.208;4.242;2023-04-08T08:18:02;11.40;99.90
19164;DHT22;9714;51.208;4.242;2023-04-08T08:24:29;11.20;99.90
19164;DHT22;9714;51.208;4.242;2023-04-08T08:27:34;11.30;99.90
19164;DHT22;9714;51.208;4.242;2023-04-08T08:30:43;11.30;99.90
19164;DHT22;9714;51.208;4.242;2023-04-08T08:33:43;11.10;99.90
19164;DHT22;9714;51.208;4.242;2023-04-08T08:36:11;11.10;99.90
19164;DHT22;9714;51.208;4.242;2023-04-08T08:38:38;11.10;99.90
19164;DHT22;9714;51.208;4.242;2023-04-08T08:41:07;11.20;99.90
19164;DHT22;9714;51.208;4.242;2023-04-08T08:43:35;11.20;99.90
19164;DHT22;9714;51.208;4.242;2023-04-08T08:46:09;11.30;99.90
19164;DHT22;9714;51.208;4.242;2023-04-08T08:48:42;11.30;99.90
19164;DHT22;9714;51.208;4.242;2023-04-08T08:51:12;11.40;99.90
19164;DHT22;9714;51.208;4.242;2023-04-08T08:53:42;11.30;99.90
19164;DHT22;9714;51.208;4.242;2023-04-08T08:56:12;11.30;99.90
19164;DHT22;9714;51.208;4.242;2023-04-08T08:58:42;11.30;99.90
19164;DHT22;9714;51.208;4.242;2023-04-08T09:01:32;11.30;99.90
19164;DHT22;9714;51.208;4.242;2023-04-08T09:04:08;11.30;99.90
19164;DHT22;9714;51.208;4.242;2023-04-08T09:06:47;11.20;99.90
19164;DHT22;9714;51.208;4.242;2023-04-08T09:09:17;11.00;99.90
19164;DHT22;9714;51.208;4.242;2023-04-08T09:12:06;11.20;99.90
19164;DHT22;9714;51.208;4.242;2023-04-08T09:14:44;11.20;99.90
19164;DHT22;9714;51.208;4.242;2023-04-08T09:17:30;11.20;99.90
19164;DHT22;9714;51.208;4.242;2023-04-08T09:20:08;11.20;99.90
19164;DHT22;9714;51.208;4.242;2023-04-08T09:22:57;11.30;99.90
19164;DHT22;9714;51.208;4.242;2023-04-08T09:25:26;11.50;99.90
19164;DHT22;9714;51.208;4.242;2023-04-08T09:27:57;11.50;99.90
19164;DHT22;9714;51.208;4.242;2023-04-08T09:30:28;11.80;99.90
19164;DHT22;9714;51.208;4.242;2023-04-08T09:33:00;11.90;99.90
19164;DHT22;9714;51.208;4.242;2023-04-08T09:35:33;11.90;99.90
19164;DHT22;9714;51.208;4.242;2023-04-08T09:38:09;12.00;99.90
19164;DHT22;9714;51.208;4.242;2023-04-08T09:40:47;12.10;99.90
19164;DHT22;9714;51.208;4.242;2023-04-08T09:43:42;12.40;99.90
19164;DHT22;9714;51.208;4.242;2023-04-08T09:46:44;12.50;99.90
19164;DHT22;9714;51.208;4.242;2023-04-08T09:49:28;12.80;99.90
19164;DHT22;9714;51.208;4.242;2023-04-08T09:52:28;12.90;99.90
19164;DHT22;9714;51.208;4.242;2023-04-08T09:55:37;13.10;99.90
19164;DHT22;9714;51.208;4.242;2023-04-08T09:58:18;13.40;99.90
19164;DHT22;9714;51.208;4.242;2023-04-08T10:00:54;13.40;99.90
19164;DHT22;9714;51.208;4.242;2023-04-08T10:04:02;13.50;99.90
19164;DHT22;9714;51.208;4.242;2023-04-08T10:07:39;13.50;99.90
19164;DHT22;9714;51.208;4.242;2023-04-08T10:54:25;14.50;99.90
19164;DHT22;9714;51.208;4.242;2023-04-08T10:57:37;14.90;99.90
19164;DHT22;9714;51.208;4.242;2023-04-08T11:00:40;14.40;99.90
19164;DHT22;9714;51.208;4.242;2023-04-08T11:04:14;15.00;99.90
19164;DHT22;9714;51.208;4.242;2023-04-08T11:13:46;16.50;99.90
19164;DHT22;9714;51.208;4.242;2023-04-08T11:16:49;16.70;99.90
19164;DHT22;9714;51.208;4.242;2023-04-08T11:19:38;18.20;99.90
19164;DHT22;9714;51.208;4.242;2023-04-08T11:22:45;19.00;99.90
19164;DHT22;9714;51.208;4.242;2023-04-08T11:25:36;20.90;99.90
19164;DHT22;9714;51.208;4.242;2023-04-08T11:28:59;21.30;99.90
19164;DHT22;9714;51.208;4.242;2023-04-08T11:32:00;20.50;99.90
19164;DHT22;9714;51.208;4.242;2023-04-08T11:34:43;20.50;99.90
19164;DHT22;9714;51.208;4.242;2023-04-08T11:37:19;22.00;99.90
19164;DHT22;9714;51.208;4.242;2023-04-08T11:40:11;22.70;99.90
19164;DHT22;9714;51.208;4.242;2023-04-08T11:43:13;23.70;97.90
19164;DHT22;9714;51.208;4.242;2023-04-08T11:45:52;25.40;91.80
19164;DHT22;9714;51.208;4.242;2023-04-08T11:48:38;24.30;90.30
19164;DHT22;9714;51.208;4.242;2023-04-08T11:51:14;23.60;90.00
19164;DHT22;9714;51.208;4.242;2023-04-08T11:53:48;22.30;92.30
19164;DHT22;9714;51.208;4.242;2023-04-08T11:56:17;20.80;94.90
19164;DHT22;9714;51.208;4.242;2023-04-08T11:59:02;20.10;96.70
19164;DHT22;9714;51.208;4.242;2023-04-08T12:01:34;19.00;99.70
19164;DHT22;9714;51.208;4.242;2023-04-08T12:04:02;18.10;99.90
19164;DHT22;9714;51.208;4.242;2023-04-08T12:06:29;17.40;99.90
19164;DHT22;9714;51.208;4.242;2023-04-08T12:08:58;17.40;99.90
19164;DHT22;9714;51.208;4.242;2023-04-08T12:11:25;17.70;99.90
19164;DHT22;9714;51.208;4.242;2023-04-08T12:13:52;17.20;99.90
19164;DHT22;9714;51.208;4.242;2023-04-08T12:16:19;17.00;99.90
19164;DHT22;9714;51.208;4.242;2023-04-08T12:18:47;16.60;99.90
19164;DHT22;9714;51.208;4.242;2023-04-08T12:21:14;16.80;99.90
19164;DHT22;9714;51.208;4.242;2023-04-08T12:23:42;16.70;99.90
19164;DHT22;9714;51.208;4.242;2023-04-08T12:26:10;16.60;99.90
19164;DHT22;9714;51.208;4.242;2023-04-08T12:28:38;16.80;99.90
19164;DHT22;9714;51.208;4.242;2023-04-08T12:31:05;16.80;99.90
19164;DHT22;9714;51.208;4.242;2023-04-08T12:33:32;16.90;99.90
19164;DHT22;9714;51.208;4.242;2023-04-08T12:36:00;17.50;99.90
19164;DHT22;9714;51.208;4.242;2023-04-08T12:38:27;17.60;99.90
19164;DHT22;9714;51.208;4.242;2023-04-08T12:40:54;18.00;99.90
19164;DHT22;9714;51.208;4.242;2023-04-08T12:43:23;18.40;99.90
19164;DHT22;9714;51.208;4.242;2023-04-08T12:45:50;18.40;99.90
19164;DHT22;9714;51.208;4.242;2023-04-08T12:48:18;18.30;99.90
19164;DHT22;9714;51.208;4.242;2023-04-08T12:50:47;18.00;99.90
19164;DHT22;9714;51.208;4.242;2023-04-08T12:53:16;17.90;99.90
19164;DHT22;9714;51.208;4.242;2023-04-08T12:55:43;17.80;99.90
19164;DHT22;9714;51.208;4.242;2023-04-08T12:58:10;18.20;99.90
19164;DHT22;9714;51.208;4.242;2023-04-08T13:00:37;18.20;99.90
19164;DHT22;9714;51.208;4.242;2023-04-08T13:03:04;18.70;99.90
19164;DHT22;9714;51.208;4.242;2023-04-08T13:05:32;18.90;99.90
19164;DHT22;9714;51.208;4.242;2023-04-08T13:08:00;18.70;99.90
19164;DHT22;9714;51.208;4.242;2023-04-08T13:10:35;19.10;99.90
19164;DHT22;9714;51.208;4.242;2023-04-08T13:13:04;19.40;99.90
19164;DHT22;9714;51.208;4.242;2023-04-08T13:15:31;19.50;99.90
19164;DHT22;9714;51.208;4.242;2023-04-08T13:17:58;20.80;99.90
19164;DHT22;9714;51.208;4.242;2023-04-08T13:20:27;21.30;99.90
19164;DHT22;9714;51.208;4.242;2023-04-08T13:22:56;20.60;99.90
19164;DHT22;9714;51.208;4.242;2023-04-08T13:25:23;20.50;99.90
19164;DHT22;9714;51.208;4.242;2023-04-08T13:27:51;19.90;99.90
19164;DHT22;9714;51.208;4.242;2023-04-08T13:30:18;20.10;99.90
19164;DHT22;9714;51.208;4.242;2023-04-08T13:32:46;19.40;99.90
19164;DHT22;9714;51.208;4.242;2023-04-08T13:35:13;19.20;99.90
19164;DHT22;9714;51.208;4.242;2023-04-08T13:37:42;19.10;99.90
19164;DHT22;9714;51.208;4.242;2023-04-08T13:40:10;19.10;99.90
19164;DHT22;9714;51.208;4.242;2023-04-08T13:42:43;19.10;99.90
19164;DHT22;9714;51.208;4.242;2023-04-08T13:45:13;19.70;99.90
19164;DHT22;9714;51.208;4.242;2023-04-08T13:47:40;21.40;99.90
19164;DHT22;9714;51.208;4.242;2023-04-08T13:50:08;22.70;95.30
19164;DHT22;9714;51.208;4.242;2023-04-08T13:52:36;23.90;91.80
19164;DHT22;9714;51.208;4.242;2023-04-08T13:55:05;24.90;84.30
19164;DHT22;9714;51.208;4.242;2023-04-08T13:57:32;24.80;77.30
19164;DHT22;9714;51.208;4.242;2023-04-08T13:59:59;24.30;75.80
19164;DHT22;9714;51.208;4.242;2023-04-08T14:02:27;24.80;74.70
19164;DHT22;9714;51.208;4.242;2023-04-08T14:04:54;24.90;73.20
19164;DHT22;9714;51.208;4.242;2023-04-08T14:07:23;25.60;71.30
19164;DHT22;9714;51.208;4.242;2023-04-08T14:09:50;26.80;68.00
19164;DHT22;9714;51.208;4.242;2023-04-08T14:12:17;25.70;71.50
19164;DHT22;9714;51.208;4.242;2023-04-08T14:14:45;24.20;73.10
19164;DHT22;9714;51.208;4.242;2023-04-08T14:17:12;23.20;76.60
19164;DHT22;9714;51.208;4.242;2023-04-08T14:19:42;22.00;78.80
19164;DHT22;9714;51.208;4.242;2023-04-08T14:22:09;21.50;80.10
19164;DHT22;9714;51.208;4.242;2023-04-08T14:24:38;21.90;82.10
19164;DHT22;9714;51.208;4.242;2023-04-08T14:27:04;22.70;79.00
19164;DHT22;9714;51.208;4.242;2023-04-08T14:29:32;21.90;79.30
19164;DHT22;9714;51.208;4.242;2023-04-08T14:31:59;21.20;82.00
19164;DHT22;9714;51.208;4.242;2023-04-08T14:34:25;20.50;85.90
19164;DHT22;9714;51.208;4.242;2023-04-08T14:36:54;19.80;88.70
19164;DHT22;9714;51.208;4.242;2023-04-08T14:39:21;19.70;90.30
19164;DHT22;9714;51.208;4.242;2023-04-08T14:41:48;20.30;90.80
19164;DHT22;9714;51.208;4.242;2023-04-08T14:44:14;21.10;87.70
19164;DHT22;9714;51.208;4.242;2023-04-08T14:46:42;20.40;89.50
19164;DHT22;9714;51.208;4.242;2023-04-08T14:49:09;21.00;88.00
19164;DHT22;9714;51.208;4.242;2023-04-08T14:51:37;21.90;84.30
19164;DHT22;9714;51.208;4.242;2023-04-08T14:54:07;22.70;82.90
19164;DHT22;9714;51.208;4.242;2023-04-08T14:56:34;23.20;80.60
19164;DHT22;9714;51.208;4.242;2023-04-08T14:59:01;22.50;80.20
19164;DHT22;9714;51.208;4.242;2023-04-08T15:01:28;21.30;83.00
19164;DHT22;9714;51.208;4.242;2023-04-08T15:03:57;20.40;85.50
19164;DHT22;9714;51.208;4.242;2023-04-08T15:06:25;19.60;87.30
19164;DHT22;9714;51.208;4.242;2023-04-08T15:08:54;19.20;89.10
19164;DHT22;9714;51.208;4.242;2023-04-08T15:11:22;19.10;90.20
19164;DHT22;9714;51.208;4.242;2023-04-08T15:13:51;18.90;90.40
19164;DHT22;9714;51.208;4.242;2023-04-08T15:16:18;18.60;88.40
19164;DHT22;9714;51.208;4.242;2023-04-08T15:18:45;18.00;89.30
19164;DHT22;9714;51.208;4.242;2023-04-08T15:21:13;17.70;90.40
19164;DHT22;9714;51.208;4.242;2023-04-08T15:23:46;17.80;90.30
19164;DHT22;9714;51.208;4.242;2023-04-08T15:26:14;17.50;90.60
19164;DHT22;9714;51.208;4.242;2023-04-08T15:28:46;18.20;91.00
19164;DHT22;9714;51.208;4.242;2023-04-08T15:31:14;19.60;90.20
19164;DHT22;9714;51.208;4.242;2023-04-08T15:33:43;20.70;86.40
19164;DHT22;9714;51.208;4.242;2023-04-08T15:36:11;20.70;85.40
19164;DHT22;9714;51.208;4.242;2023-04-08T15:38:44;21.10;84.70
19164;DHT22;9714;51.208;4.242;2023-04-08T15:41:14;21.60;80.30
19164;DHT22;9714;51.208;4.242;2023-04-08T15:43:42;22.20;78.50
19164;DHT22;9714;51.208;4.242;2023-04-08T15:46:16;23.30;79.40
19164;DHT22;9714;51.208;4.242;2023-04-08T15:48:44;22.80;80.00
19164;DHT22;9714;51.208;4.242;2023-04-08T15:51:12;22.40;78.80
19164;DHT22;9714;51.208;4.242;2023-04-08T15:53:39;21.40;74.70
19164;DHT22;9714;51.208;4.242;2023-04-08T15:56:11;20.00;74.10
19164;DHT22;9714;51.208;4.242;2023-04-08T15:58:39;19.40;76.70
19164;DHT22;9714;51.208;4.242;2023-04-08T16:01:07;18.90;75.70
19164;DHT22;9714;51.208;4.242;2023-04-08T16:03:35;18.60;76.80
19164;DHT22;9714;51.208;4.242;2023-04-08T16:06:09;18.90;76.60
19164;DHT22;9714;51.208;4.242;2023-04-08T16:08:38;19.00;76.10
19164;DHT22;9714;51.208;4.242;2023-04-08T16:11:07;19.10;75.10
19164;DHT22;9714;51.208;4.242;2023-04-08T16:13:34;18.90;76.10
19164;DHT22;9714;51.208;4.242;2023-04-08T16:16:04;18.50;77.90
19164;DHT22;9714;51.208;4.242;2023-04-08T16:18:35;18.20;80.60
19164;DHT22;9714;51.208;4.242;2023-04-08T16:21:03;18.00;80.80
19164;DHT22;9714;51.208;4.242;2023-04-08T16:23:32;17.70;82.40
19164;DHT22;9714;51.208;4.242;2023-04-08T16:26:03;17.80;82.80
19164;DHT22;9714;51.208;4.242;2023-04-08T16:28:32;17.90;83.00
19164;DHT22;9714;51.208;4.242;2023-04-08T16:31:03;17.90;82.50
19164;DHT22;9714;51.208;4.242;2023-04-08T16:33:32;17.80;82.90
19164;DHT22;9714;51.208;4.242;2023-04-08T16:36:06;18.00;82.60
19164;DHT22;9714;51.208;4.242;2023-04-08T16:38:34;17.80;81.00
19164;DHT22;9714;51.208;4.242;2023-04-08T16:41:01;17.60;82.30
19164;DHT22;9714;51.208;4.242;2023-04-08T16:43:30;18.00;81.90
19164;DHT22;9714;51.208;4.242;2023-04-08T16:45:58;18.20;80.20
19164;DHT22;9714;51.208;4.242;2023-04-08T16:48:26;17.90;81.00
19164;DHT22;9714;51.208;4.242;2023-04-08T16:50:56;17.80;82.10
19164;DHT22;9714;51.208;4.242;2023-04-08T16:53:27;17.40;82.40
19164;DHT22;9714;51.208;4.242;2023-04-08T16:55:54;17.70;81.60
19164;DHT22;9714;51.208;4.242;2023-04-08T16:58:21;17.30;82.40
19164;DHT22;9714;51.208;4.242;2023-04-08T17:00:48;17.10;83.90
19164;DHT22;9714;51.208;4.242;2023-04-08T17:03:16;17.00;83.60
19164;DHT22;9714;51.208;4.242;2023-04-08T17:05:44;17.00;83.40
19164;DHT22;9714;51.208;4.242;2023-04-08T17:08:15;16.70;83.80
19164;DHT22;9714;51.208;4.242;2023-04-08T17:10:45;16.50;84.90
19164;DHT22;9714;51.208;4.242;2023-04-08T17:13:19;16.50;84.90
19164;DHT22;9714;51.208;4.242;2023-04-08T17:15:47;16.50;85.00
19164;DHT22;9714;51.208;4.242;2023-04-08T17:18:14;16.40;85.50
19164;DHT22;9714;51.208;4.242;2023-04-08T17:20:41;16.50;86.00
19164;DHT22;9714;51.208;4.242;2023-04-08T17:23:09;16.70;86.70
19164;DHT22;9714;51.208;4.242;2023-04-08T17:25:42;16.70;87.00
19164;DHT22;9714;51.208;4.242;2023-04-08T17:28:10;16.80;87.30
19164;DHT22;9714;51.208;4.242;2023-04-08T17:30:38;16.60;87.80
19164;DHT22;9714;51.208;4.242;2023-04-08T17:33:05;16.80;88.20
19164;DHT22;9714;51.208;4.242;2023-04-08T17:35:33;16.50;93.60
19164;DHT22;9714;51.208;4.242;2023-04-08T17:38:00;16.20;99.90
19164;DHT22;9714;51.208;4.242;2023-04-08T17:40:29;16.30;99.90
19164;DHT22;9714;51.208;4.242;2023-04-08T17:42:56;16.30;99.90
19164;DHT22;9714;51.208;4.242;2023-04-08T17:45:25;16.00;99.90
19164;DHT22;9714;51.208;4.242;2023-04-08T17:47:52;16.00;99.90
19164;DHT22;9714;51.208;4.242;2023-04-08T17:50:19;15.80;99.90
19164;DHT22;9714;51.208;4.242;2023-04-08T17:52:47;15.40;99.90
19164;DHT22;9714;51.208;4.242;2023-04-08T17:55:15;15.40;99.90
19164;DHT22;9714;51.208;4.242;2023-04-08T17:57:42;15.30;99.90
19164;DHT22;9714;51.208;4.242;2023-04-08T18:00:15;15.00;99.90
19164;DHT22;9714;51.208;4.242;2023-04-08T18:02:44;14.90;99.90
19164;DHT22;9714;51.208;4.242;2023-04-08T18:05:12;14.70;99.90
19164;DHT22;9714;51.208;4.242;2023-04-08T18:07:40;14.60;99.90
19164;DHT22;9714;51.208;4.242;2023-04-08T18:10:08;14.50;99.90
19164;DHT22;9714;51.208;4.242;2023-04-08T18:12:35;14.40;99.90
19164;DHT22;9714;51.208;4.242;2023-04-08T18:15:05;14.10;99.90
19164;DHT22;9714;51.208;4.242;2023-04-08T18:17:33;14.20;99.90
19164;DHT22;9714;51.208;4.242;2023-04-08T18:20:03;14.20;99.90
19164;DHT22;9714;51.208;4.242;2023-04-08T18:22:36;14.00;99.90
19164;DHT22;9714;51.208;4.242;2023-04-08T18:25:05;13.90;99.90
19164;DHT22;9714;51.208;4.242;2023-04-08T18:27:32;13.60;99.90
19164;DHT22;9714;51.208;4.242;2023-04-08T18:30:00;13.80;99.90
19164;DHT22;9714;51.208;4.242;2023-04-08T18:32:27;13.90;99.90
19164;DHT22;9714;51.208;4.242;2023-04-08T18:34:54;13.70;99.90
19164;DHT22;9714;51.208;4.242;2023-04-08T18:37:23;13.60;99.90
19164;DHT22;9714;51.208;4.242;2023-04-08T18:39:52;13.40;99.90
19164;DHT22;9714;51.208;4.242;2023-04-08T18:42:20;13.50;99.90
19164;DHT22;9714;51.208;4.242;2023-04-08T18:44:53;13.30;99.90
19164;DHT22;9714;51.208;4.242;2023-04-08T18:47:20;13.30;99.90
19164;DHT22;9714;51.208;4.242;2023-04-08T18:49:48;13.70;99.90
19164;DHT22;9714;51.208;4.242;2023-04-08T18:52:16;13.70;99.90
19164;DHT22;9714;51.208;4.242;2023-04-08T18:54:46;13.80;99.90
19164;DHT22;9714;51.208;4.242;2023-04-08T18:57:15;13.70;99.90
19164;DHT22;9714;51.208;4.242;2023-04-08T18:59:45;13.70;99.90
19164;DHT22;9714;51.208;4.242;2023-04-08T19:02:13;13.70;99.90
19164;DHT22;9714;51.208;4.242;2023-04-08T19:04:40;13.60;99.90
19164;DHT22;9714;51.208;4.242;2023-04-08T19:07:08;13.50;99.90
19164;DHT22;9714;51.208;4.242;2023-04-08T19:09:36;13.70;99.90
19164;DHT22;9714;51.208;4.242;2023-04-08T19:12:07;13.50;99.90
19164;DHT22;9714;51.208;4.242;2023-04-08T19:14:34;13.70;99.90
19164;DHT22;9714;51.208;4.242;2023-04-08T19:17:03;13.70;99.90
19164;DHT22;9714;51.208;4.242;2023-04-08T19:19:30;13.60;99.90
19164;DHT22;9714;51.208;4.242;2023-04-08T19:21:57;13.80;99.90
19164;DHT22;9714;51.208;4.242;2023-04-08T19:24:31;13.70;99.90
19164;DHT22;9714;51.208;4.242;2023-04-08T19:26:58;13.50;99.90
19164;DHT22;9714;51.208;4.242;2023-04-08T19:29:33;13.50;99.90
19164;DHT22;9714;51.208;4.242;2023-04-08T19:32:00;13.60;99.90
19164;DHT22;9714;51.208;4.242;2023-04-08T19:34:29;13.70;99.90
19164;DHT22;9714;51.208;4.242;2023-04-08T19:36:56;13.80;99.90
19164;DHT22;9714;51.208;4.242;2023-04-08T19:39:23;13.60;99.90
19164;DHT22;9714;51.208;4.242;2023-04-08T19:41:50;13.50;99.90
19164;DHT22;9714;51.208;4.242;2023-04-08T19:44:17;13.40;99.90
19164;DHT22;9714;51.208;4.242;2023-04-08T19:46:45;13.80;99.90
19164;DHT22;9714;51.208;4.242;2023-04-08T19:49:12;13.90;99.90
19164;DHT22;9714;51.208;4.242;2023-04-08T19:51:42;13.70;99.90
19164;DHT22;9714;51.208;4.242;2023-04-08T19:54:10;13.50;99.90
19164;DHT22;9714;51.208;4.242;2023-04-08T19:56:38;13.30;99.90
19164;DHT22;9714;51.208;4.242;2023-04-08T19:59:06;13.10;99.90
19164;DHT22;9714;51.208;4.242;2023-04-08T20:01:33;13.00;99.90
19164;DHT22;9714;51.208;4.242;2023-04-08T20:04:04;12.90;99.90
19164;DHT22;9714;51.208;4.242;2023-04-08T20:06:31;13.10;99.90
19164;DHT22;9714;51.208;4.242;2023-04-08T20:08:59;13.10;99.90
19164;DHT22;9714;51.208;4.242;2023-04-08T20:11:30;13.00;99.90
19164;DHT22;9714;51.208;4.242;2023-04-08T20:13:57;13.10;99.90
19164;DHT22;9714;51.208;4.242;2023-04-08T20:16:24;12.90;99.90
19164;DHT22;9714;51.208;4.242;2023-04-08T20:18:51;12.80;99.90
19164;DHT22;9714;51.208;4.242;2023-04-08T20:21:26;12.70;99.90
19164;DHT22;9714;51.208;4.242;2023-04-08T20:23:56;12.60;99.90
19164;DHT22;9714;51.208;4.242;2023-04-08T20:26:24;12.40;99.90
19164;DHT22;9714;51.208;4.242;2023-04-08T20:28:51;12.30;99.90
19164;DHT22;9714;51.208;4.242;2023-04-08T20:31:19;12.30;99.90
19164;DHT22;9714;51.208;4.242;2023-04-08T20:33:49;12.70;99.90
19164;DHT22;9714;51.208;4.242;2023-04-08T20:36:17;12.40;99.90
19164;DHT22;9714;51.208;4.242;2023-04-08T20:38:45;12.20;99.90
19164;DHT22;9714;51.208;4.242;2023-04-08T20:41:17;12.10;99.90
19164;DHT22;9714;51.208;4.242;2023-04-08T20:43:50;11.90;99.90
19164;DHT22;9714;51.208;4.242;2023-04-08T20:46:19;11.90;99.90
19164;DHT22;9714;51.208;4.242;2023-04-08T20:48:55;11.80;99.90
19164;DHT22;9714;51.208;4.242;2023-04-08T20:51:23;11.80;99.90
19164;DHT22;9714;51.208;4.242;2023-04-08T20:53:54;12.10;99.90
19164;DHT22;9714;51.208;4.242;2023-04-08T20:56:21;12.00;99.90
19164;DHT22;9714;51.208;4.242;2023-04-08T20:58:48;11.80;99.90
19164;DHT22;9714;51.208;4.242;2023-04-08T21:01:15;11.60;99.90
19164;DHT22;9714;51.208;4.242;2023-04-08T21:03:43;11.50;99.90
19164;DHT22;9714;51.208;4.242;2023-04-08T21:06:14;11.40;99.90
19164;DHT22;9714;51.208;4.242;2023-04-08T21:08:42;11.30;99.90
19164;DHT22;9714;51.208;4.242;2023-04-08T21:11:10;11.30;99.90
19164;DHT22;9714;51.208;4.242;2023-04-08T21:13:38;11.40;99.90
19164;DHT22;9714;51.208;4.242;2023-04-08T21:16:07;11.30;99.90
19164;DHT22;9714;51.208;4.242;2023-04-08T21:18:41;11.20;99.90
19164;DHT22;9714;51.208;4.242;2023-04-08T21:21:09;11.10;99.90
19164;DHT22;9714;51.208;4.242;2023-04-08T21:23:45;11.10;99.90
19164;DHT22;9714;51.208;4.242;2023-04-08T21:26:25;11.10;99.90
19164;DHT22;9714;51.208;4.242;2023-04-08T21:28:58;11.10;99.90
19164;DHT22;9714;51.208;4.242;2023-04-08T21:31:27;11.10;99.90
19164;DHT22;9714;51.208;4.242;2023-04-08T21:33:55;11.10;99.90
19164;DHT22;9714;51.208;4.242;2023-04-08T21:36:23;11.10;99.90
19164;DHT22;9714;51.208;4.242;2023-04-08T21:38:52;11.10;99.90
19164;DHT22;9714;51.208;4.242;2023-04-08T21:41:23;11.10;99.90
19164;DHT22;9714;51.208;4.242;2023-04-08T21:43:50;10.90;99.90
19164;DHT22;9714;51.208;4.242;2023-04-08T21:46:18;10.90;99.90
19164;DHT22;9714;51.208;4.242;2023-04-08T21:48:45;10.90;99.90
19164;DHT22;9714;51.208;4.242;2023-04-08T21:51:14;10.90;99.90
19164;DHT22;9714;51.208;4.242;2023-04-08T21:53:46;10.90;99.90
19164;DHT22;9714;51.208;4.242;2023-04-08T21:56:13;10.90;99.90
19164;DHT22;9714;51.208;4.242;2023-04-08T21:58:48;11.00;99.90
19164;DHT22;9714;51.208;4.242;2023-04-08T22:01:16;10.90;99.90
19164;DHT22;9714;51.208;4.242;2023-04-08T22:03:43;11.00;99.90
19164;DHT22;9714;51.208;4.242;2023-04-08T22:06:10;10.90;99.90
19164;DHT22;9714;51.208;4.242;2023-04-08T22:08:37;10.80;99.90
19164;DHT22;9714;51.208;4.242;2023-04-08T22:11:05;10.80;99.90
19164;DHT22;9714;51.208;4.242;2023-04-08T22:13:33;10.60;99.90
19164;DHT22;9714;51.208;4.242;2023-04-08T22:16:02;10.70;99.90
19164;DHT22;9714;51.208;4.242;2023-04-08T22:18:29;10.70;99.90
19164;DHT22;9714;51.208;4.242;2023-04-08T22:20:56;10.60;99.90
19164;DHT22;9714;51.208;4.242;2023-04-08T22:23:23;10.60;99.90
19164;DHT22;9714;51.208;4.242;2023-04-08T22:25:50;10.60;99.90
19164;DHT22;9714;51.208;4.242;2023-04-08T22:28:18;10.60;99.90
19164;DHT22;9714;51.208;4.242;2023-04-08T22:30:45;10.50;99.90
19164;DHT22;9714;51.208;4.242;2023-04-08T22:33:14;10.40;99.90
19164;DHT22;9714;51.208;4.242;2023-04-08T22:35:42;10.20;99.90
19164;DHT22;9714;51.208;4.242;2023-04-08T22:38:09;10.20;99.90
19164;DHT22;9714;51.208;4.242;2023-04-08T22:40:37;10.00;99.90
19164;DHT22;9714;51.208;4.242;2023-04-08T22:43:04;10.20;99.90
19164;DHT22;9714;51.208;4.242;2023-04-08T22:45:33;10.20;99.90
19164;DHT22;9714;51.208;4.242;2023-04-08T22:48:01;10.20;99.90
19164;DHT22;9714;51.208;4.242;2023-04-08T22:50:30;10.20;99.90
19164;DHT22;9714;51.208;4.242;2023-04-08T22:52:57;10.20;99.90
19164;DHT22;9714;51.208;4.242;2023-04-08T22:55:25;10.10;99.90
19164;DHT22;9714;51.208;4.242;2023-04-08T22:57:52;10.10;99.90
19164;DHT22;9714;51.208;4.242;2023-04-08T23:00:19;10.00;99.90
19164;DHT22;9714;51.208;4.242;2023-04-08T23:02:46;10.00;99.90
19164;DHT22;9714;51.208;4.242;2023-04-08T23:05:13;10.00;99.90
19164;DHT22;9714;51.208;4.242;2023-04-08T23:07:44;10.00;99.90
19164;DHT22;9714;51.208;4.242;2023-04-08T23:10:11;10.00;99.90
19164;DHT22;9714;51.208;4.242;2023-04-08T23:12:38;10.00;99.90
19164;DHT22;9714;51.208;4.242;2023-04-08T23:15:06;10.00;99.90
19164;DHT22;9714;51.208;4.242;2023-04-08T23:17:33;9.90;99.90
19164;DHT22;9714;51.208;4.242;2023-04-08T23:20:00;9.80;99.90